sensor_id;sensor_type;location;lat;lon;timestamp;P1;durP1;ratioP1;P2;durP2;ratioP2
33786;SDS011;29742;51.540;9.358;2023-02-15T00:03:06;0.63;;;0.63;;
33786;SDS011;29742;51.540;9.358;2023-02-15T00:08:06;1.52;;;0.95;;
33786;SDS011;29742;51.540;9.358;2023-02-15T00:13:07;1.52;;;1.20;;
33786;SDS011;29742;51.540;9.358;2023-02-15T00:18:07;1.30;;;1.20;;
33786;SDS011;29742;51.540;9.358;2023-02-15T00:23:07;0.95;;;0.85;;
33786;SDS011;29742;51.540;9.358;2023-02-15T00:28:08;1.02;;;0.73;;
33786;SDS011;29742;51.540;9.358;2023-02-15T00:33:08;1.60;;;1.00;;
33786;SDS011;29742;51.540;9.358;2023-02-15T00:38:09;1.00;;;0.90;;
33786;SDS011;29742;51.540;9.358;2023-02-15T00:43:09;0.75;;;0.75;;
33786;SDS011;29742;51.540;9.358;2023-02-15T00:48:09;1.15;;;1.00;;
33786;SDS011;29742;51.540;9.358;2023-02-15T00:53:10;1.05;;;0.95;;
33786;SDS011;29742;51.540;9.358;2023-02-15T00:58:11;1.33;;;0.88;;
33786;SDS011;29742;51.540;9.358;2023-02-15T01:03:13;1.17;;;0.93;;
33786;SDS011;29742;51.540;9.358;2023-02-15T01:08:15;1.17;;;0.90;;
33786;SDS011;29742;51.540;9.358;2023-02-15T01:13:15;0.95;;;0.82;;
33786;SDS011;29742;51.540;9.358;2023-02-15T01:18:16;1.83;;;1.00;;
33786;SDS011;29742;51.540;9.358;2023-02-15T01:23:17;1.38;;;1.00;;
33786;SDS011;29742;51.540;9.358;2023-02-15T01:28:17;1.23;;;0.90;;
33786;SDS011;29742;51.540;9.358;2023-02-15T01:33:17;1.30;;;1.00;;
33786;SDS011;29742;51.540;9.358;2023-02-15T01:38:18;0.95;;;0.90;;
33786;SDS011;29742;51.540;9.358;2023-02-15T01:43:18;0.55;;;0.55;;
33786;SDS011;29742;51.540;9.358;2023-02-15T01:48:20;0.60;;;0.60;;
33786;SDS011;29742;51.540;9.358;2023-02-15T01:53:27;1.50;;;0.93;;
33786;SDS011;29742;51.540;9.358;2023-02-15T01:58:32;1.13;;;0.85;;
33786;SDS011;29742;51.540;9.358;2023-02-15T02:08:53;1.02;;;0.93;;
33786;SDS011;29742;51.540;9.358;2023-02-15T02:13:54;1.38;;;0.70;;
33786;SDS011;29742;51.540;9.358;2023-02-15T02:35:30;0.90;;;0.80;;
33786;SDS011;29742;51.540;9.358;2023-02-15T02:45:52;1.10;;;0.90;;
33786;SDS011;29742;51.540;9.358;2023-02-15T02:50:55;1.23;;;0.98;;
33786;SDS011;29742;51.540;9.358;2023-02-15T02:56:18;1.48;;;1.13;;
33786;SDS011;29742;51.540;9.358;2023-02-15T03:01:24;1.60;;;1.10;;
33786;SDS011;29742;51.540;9.358;2023-02-15T03:11:36;1.30;;;0.80;;
33786;SDS011;29742;51.540;9.358;2023-02-15T03:16:37;0.75;;;0.73;;
33786;SDS011;29742;51.540;9.358;2023-02-15T03:26:57;1.17;;;1.02;;
33786;SDS011;29742;51.540;9.358;2023-02-15T03:32:03;1.20;;;1.10;;
33786;SDS011;29742;51.540;9.358;2023-02-15T03:37:09;1.02;;;0.75;;
33786;SDS011;29742;51.540;9.358;2023-02-15T03:42:33;0.90;;;0.70;;
33786;SDS011;29742;51.540;9.358;2023-02-15T03:47:36;0.77;;;0.73;;
33786;SDS011;29742;51.540;9.358;2023-02-15T03:52:39;0.65;;;0.57;;
33786;SDS011;29742;51.540;9.358;2023-02-15T03:57:39;1.25;;;0.85;;
33786;SDS011;29742;51.540;9.358;2023-02-15T04:03:03;0.73;;;0.65;;
33786;SDS011;29742;51.540;9.358;2023-02-15T04:08:09;0.73;;;0.70;;
33786;SDS011;29742;51.540;9.358;2023-02-15T04:13:10;1.20;;;0.80;;
33786;SDS011;29742;51.540;9.358;2023-02-15T04:18:11;1.05;;;0.80;;
33786;SDS011;29742;51.540;9.358;2023-02-15T04:23:11;0.80;;;0.80;;
33786;SDS011;29742;51.540;9.358;2023-02-15T04:28:30;0.73;;;0.63;;
33786;SDS011;29742;51.540;9.358;2023-02-15T04:33:30;0.90;;;0.68;;
33786;SDS011;29742;51.540;9.358;2023-02-15T04:38:31;1.30;;;0.68;;
33786;SDS011;29742;51.540;9.358;2023-02-15T04:43:31;0.90;;;0.75;;
33786;SDS011;29742;51.540;9.358;2023-02-15T04:48:31;0.73;;;0.73;;
33786;SDS011;29742;51.540;9.358;2023-02-15T04:53:32;0.70;;;0.60;;
33786;SDS011;29742;51.540;9.358;2023-02-15T04:58:33;1.05;;;0.82;;
33786;SDS011;29742;51.540;9.358;2023-02-15T05:03:33;1.25;;;0.80;;
33786;SDS011;29742;51.540;9.358;2023-02-15T05:08:34;0.70;;;0.70;;
33786;SDS011;29742;51.540;9.358;2023-02-15T05:13:35;0.80;;;0.80;;
33786;SDS011;29742;51.540;9.358;2023-02-15T05:18:35;0.57;;;0.55;;
33786;SDS011;29742;51.540;9.358;2023-02-15T05:23:35;0.70;;;0.50;;
33786;SDS011;29742;51.540;9.358;2023-02-15T05:28:36;0.85;;;0.65;;
33786;SDS011;29742;51.540;9.358;2023-02-15T05:33:37;0.95;;;0.70;;
33786;SDS011;29742;51.540;9.358;2023-02-15T05:38:38;0.60;;;0.47;;
33786;SDS011;29742;51.540;9.358;2023-02-15T05:43:39;1.10;;;0.55;;
33786;SDS011;29742;51.540;9.358;2023-02-15T05:48:39;0.60;;;0.45;;
33786;SDS011;29742;51.540;9.358;2023-02-15T05:53:40;0.80;;;0.52;;
33786;SDS011;29742;51.540;9.358;2023-02-15T05:58:41;0.52;;;0.50;;
33786;SDS011;29742;51.540;9.358;2023-02-15T06:03:41;1.35;;;1.00;;
33786;SDS011;29742;51.540;9.358;2023-02-15T06:08:41;1.42;;;0.73;;
33786;SDS011;29742;51.540;9.358;2023-02-15T06:13:42;1.30;;;1.00;;
33786;SDS011;29742;51.540;9.358;2023-02-15T06:18:42;0.90;;;0.77;;
33786;SDS011;29742;51.540;9.358;2023-02-15T06:23:43;1.00;;;0.70;;
33786;SDS011;29742;51.540;9.358;2023-02-15T06:28:43;0.85;;;0.70;;
33786;SDS011;29742;51.540;9.358;2023-02-15T06:33:43;0.50;;;0.50;;
33786;SDS011;29742;51.540;9.358;2023-02-15T06:38:44;0.93;;;0.63;;
33786;SDS011;29742;51.540;9.358;2023-02-15T06:43:44;0.90;;;0.77;;
33786;SDS011;29742;51.540;9.358;2023-02-15T06:48:44;0.60;;;0.50;;
33786;SDS011;29742;51.540;9.358;2023-02-15T06:53:45;0.60;;;0.60;;
33786;SDS011;29742;51.540;9.358;2023-02-15T06:58:45;0.65;;;0.65;;
33786;SDS011;29742;51.540;9.358;2023-02-15T07:03:46;0.80;;;0.70;;
33786;SDS011;29742;51.540;9.358;2023-02-15T07:08:46;0.50;;;0.50;;
33786;SDS011;29742;51.540;9.358;2023-02-15T07:13:47;1.23;;;0.90;;
33786;SDS011;29742;51.540;9.358;2023-02-15T07:18:47;0.73;;;0.60;;
33786;SDS011;29742;51.540;9.358;2023-02-15T07:23:47;1.83;;;1.27;;
33786;SDS011;29742;51.540;9.358;2023-02-15T07:28:48;0.75;;;0.60;;
33786;SDS011;29742;51.540;9.358;2023-02-15T07:33:48;1.25;;;0.73;;
33786;SDS011;29742;51.540;9.358;2023-02-15T07:38:49;1.08;;;0.68;;
33786;SDS011;29742;51.540;9.358;2023-02-15T07:43:49;0.88;;;0.70;;
33786;SDS011;29742;51.540;9.358;2023-02-15T07:48:50;1.25;;;0.90;;
33786;SDS011;29742;51.540;9.358;2023-02-15T07:53:50;0.82;;;0.55;;
33786;SDS011;29742;51.540;9.358;2023-02-15T07:58:51;0.57;;;0.57;;
33786;SDS011;29742;51.540;9.358;2023-02-15T08:03:52;0.63;;;0.60;;
33786;SDS011;29742;51.540;9.358;2023-02-15T08:08:54;0.35;;;0.30;;
33786;SDS011;29742;51.540;9.358;2023-02-15T08:19:06;0.73;;;0.50;;
33786;SDS011;29742;51.540;9.358;2023-02-15T08:24:11;0.88;;;0.65;;
33786;SDS011;29742;51.540;9.358;2023-02-15T08:29:12;0.70;;;0.70;;
33786;SDS011;29742;51.540;9.358;2023-02-15T08:34:15;0.90;;;0.68;;
33786;SDS011;29742;51.540;9.358;2023-02-15T08:39:17;1.55;;;0.65;;
33786;SDS011;29742;51.540;9.358;2023-02-15T08:44:18;0.57;;;0.52;;
33786;SDS011;29742;51.540;9.358;2023-02-15T08:49:20;0.85;;;0.60;;
33786;SDS011;29742;51.540;9.358;2023-02-15T08:54:21;0.70;;;0.68;;
33786;SDS011;29742;51.540;9.358;2023-02-15T08:59:22;0.40;;;0.40;;
33786;SDS011;29742;51.540;9.358;2023-02-15T09:04:23;0.45;;;0.45;;
33786;SDS011;29742;51.540;9.358;2023-02-15T09:09:23;0.80;;;0.47;;
33786;SDS011;29742;51.540;9.358;2023-02-15T09:14:24;0.95;;;0.60;;
33786;SDS011;29742;51.540;9.358;2023-02-15T09:19:26;0.77;;;0.60;;
33786;SDS011;29742;51.540;9.358;2023-02-15T09:24:26;2.80;;;0.55;;
33786;SDS011;29742;51.540;9.358;2023-02-15T09:29:26;0.60;;;0.32;;
33786;SDS011;29742;51.540;9.358;2023-02-15T09:34:27;1.25;;;0.80;;
33786;SDS011;29742;51.540;9.358;2023-02-15T09:39:27;0.90;;;0.70;;
33786;SDS011;29742;51.540;9.358;2023-02-15T09:50:15;0.70;;;0.70;;
33786;SDS011;29742;51.540;9.358;2023-02-15T09:55:34;1.23;;;0.80;;
33786;SDS011;29742;51.540;9.358;2023-02-15T10:00:48;0.82;;;0.60;;
33786;SDS011;29742;51.540;9.358;2023-02-15T10:05:59;1.15;;;0.85;;
33786;SDS011;29742;51.540;9.358;2023-02-15T10:11:15;0.60;;;0.60;;
33786;SDS011;29742;51.540;9.358;2023-02-15T10:22:00;0.75;;;0.50;;
33786;SDS011;29742;51.540;9.358;2023-02-15T10:27:32;0.43;;;0.40;;
33786;SDS011;29742;51.540;9.358;2023-02-15T10:32:38;0.65;;;0.57;;
33786;SDS011;29742;51.540;9.358;2023-02-15T10:43:06;1.42;;;1.00;;
33786;SDS011;29742;51.540;9.358;2023-02-15T10:48:13;0.85;;;0.75;;
33786;SDS011;29742;51.540;9.358;2023-02-15T10:53:24;0.75;;;0.75;;
33786;SDS011;29742;51.540;9.358;2023-02-15T10:59:16;1.27;;;1.00;;
33786;SDS011;29742;51.540;9.358;2023-02-15T11:09:46;0.65;;;0.50;;
33786;SDS011;29742;51.540;9.358;2023-02-15T11:14:55;1.65;;;1.00;;
33786;SDS011;29742;51.540;9.358;2023-02-15T11:20:04;2.47;;;1.02;;
33786;SDS011;29742;51.540;9.358;2023-02-15T11:25:19;0.55;;;0.55;;
33786;SDS011;29742;51.540;9.358;2023-02-15T11:30:25;0.82;;;0.52;;
33786;SDS011;29742;51.540;9.358;2023-02-15T11:45:33;1.13;;;0.80;;
33786;SDS011;29742;51.540;9.358;2023-02-15T11:50:34;0.98;;;0.50;;
33786;SDS011;29742;51.540;9.358;2023-02-15T11:55:35;1.30;;;0.52;;
33786;SDS011;29742;51.540;9.358;2023-02-15T12:00:36;2.75;;;0.60;;
33786;SDS011;29742;51.540;9.358;2023-02-15T12:05:40;2.47;;;0.50;;
33786;SDS011;29742;51.540;9.358;2023-02-15T12:10:45;0.88;;;0.75;;
33786;SDS011;29742;51.540;9.358;2023-02-15T12:15:59;0.55;;;0.38;;
33786;SDS011;29742;51.540;9.358;2023-02-15T12:21:09;0.85;;;0.47;;
33786;SDS011;29742;51.540;9.358;2023-02-15T12:26:11;1.13;;;0.70;;
33786;SDS011;29742;51.540;9.358;2023-02-15T12:31:20;1.10;;;0.60;;
33786;SDS011;29742;51.540;9.358;2023-02-15T12:36:23;0.93;;;0.47;;
33786;SDS011;29742;51.540;9.358;2023-02-15T12:41:25;1.45;;;0.60;;
33786;SDS011;29742;51.540;9.358;2023-02-15T12:46:26;0.98;;;0.50;;
33786;SDS011;29742;51.540;9.358;2023-02-15T12:51:26;1.35;;;0.50;;
33786;SDS011;29742;51.540;9.358;2023-02-15T12:56:27;1.23;;;0.65;;
33786;SDS011;29742;51.540;9.358;2023-02-15T13:01:28;0.63;;;0.40;;
33786;SDS011;29742;51.540;9.358;2023-02-15T13:06:32;2.33;;;0.65;;
33786;SDS011;29742;51.540;9.358;2023-02-15T13:11:34;1.65;;;0.75;;
33786;SDS011;29742;51.540;9.358;2023-02-15T13:16:37;0.80;;;0.40;;
33786;SDS011;29742;51.540;9.358;2023-02-15T13:21:40;0.47;;;0.47;;
33786;SDS011;29742;51.540;9.358;2023-02-15T13:26:42;0.73;;;0.63;;
33786;SDS011;29742;51.540;9.358;2023-02-15T13:31:47;0.75;;;0.55;;
33786;SDS011;29742;51.540;9.358;2023-02-15T13:36:49;1.00;;;0.80;;
33786;SDS011;29742;51.540;9.358;2023-02-15T13:52:34;0.70;;;0.60;;
33786;SDS011;29742;51.540;9.358;2023-02-15T14:19:25;1.42;;;0.60;;
33786;SDS011;29742;51.540;9.358;2023-02-15T14:30:03;1.17;;;1.02;;
33786;SDS011;29742;51.540;9.358;2023-02-15T14:35:14;1.27;;;0.88;;
33786;SDS011;29742;51.540;9.358;2023-02-15T14:40:19;1.83;;;0.90;;
33786;SDS011;29742;51.540;9.358;2023-02-15T14:56:39;1.35;;;0.60;;
33786;SDS011;29742;51.540;9.358;2023-02-15T15:01:40;0.88;;;0.65;;
33786;SDS011;29742;51.540;9.358;2023-02-15T15:06:41;0.70;;;0.60;;
33786;SDS011;29742;51.540;9.358;2023-02-15T15:11:43;1.75;;;0.68;;
33786;SDS011;29742;51.540;9.358;2023-02-15T15:16:46;1.58;;;0.68;;
33786;SDS011;29742;51.540;9.358;2023-02-15T15:26:48;2.92;;;0.68;;
33786;SDS011;29742;51.540;9.358;2023-02-15T15:32:24;0.50;;;0.50;;
33786;SDS011;29742;51.540;9.358;2023-02-15T15:38:10;1.23;;;0.77;;
33786;SDS011;29742;51.540;9.358;2023-02-15T15:48:36;0.90;;;0.63;;
33786;SDS011;29742;51.540;9.358;2023-02-15T15:53:42;1.13;;;0.63;;
33786;SDS011;29742;51.540;9.358;2023-02-15T15:58:49;1.80;;;0.80;;
33786;SDS011;29742;51.540;9.358;2023-02-15T16:03:51;1.10;;;0.85;;
33786;SDS011;29742;51.540;9.358;2023-02-15T16:08:53;1.77;;;0.73;;
33786;SDS011;29742;51.540;9.358;2023-02-15T16:13:54;1.02;;;0.77;;
33786;SDS011;29742;51.540;9.358;2023-02-15T16:18:58;1.00;;;0.75;;
33786;SDS011;29742;51.540;9.358;2023-02-15T16:24:03;0.52;;;0.52;;
33786;SDS011;29742;51.540;9.358;2023-02-15T16:29:13;0.73;;;0.57;;
33786;SDS011;29742;51.540;9.358;2023-02-15T16:34:18;1.48;;;0.73;;
33786;SDS011;29742;51.540;9.358;2023-02-15T16:39:19;1.13;;;0.60;;
33786;SDS011;29742;51.540;9.358;2023-02-15T16:44:20;0.80;;;0.50;;
33786;SDS011;29742;51.540;9.358;2023-02-15T16:49:25;1.27;;;0.90;;
33786;SDS011;29742;51.540;9.358;2023-02-15T16:54:27;1.30;;;0.95;;
33786;SDS011;29742;51.540;9.358;2023-02-15T17:04:36;0.88;;;0.80;;
33786;SDS011;29742;51.540;9.358;2023-02-15T17:09:40;1.25;;;0.85;;
33786;SDS011;29742;51.540;9.358;2023-02-15T17:14:49;1.15;;;0.75;;
33786;SDS011;29742;51.540;9.358;2023-02-15T17:19:54;1.77;;;0.95;;
33786;SDS011;29742;51.540;9.358;2023-02-15T17:24:59;1.20;;;0.85;;
33786;SDS011;29742;51.540;9.358;2023-02-15T17:30:01;1.27;;;0.95;;
33786;SDS011;29742;51.540;9.358;2023-02-15T17:35:16;1.75;;;1.27;;
33786;SDS011;29742;51.540;9.358;2023-02-15T17:45:30;1.60;;;0.95;;
33786;SDS011;29742;51.540;9.358;2023-02-15T17:50:33;1.00;;;0.82;;
33786;SDS011;29742;51.540;9.358;2023-02-15T17:55:33;1.00;;;0.90;;
33786;SDS011;29742;51.540;9.358;2023-02-15T18:00:43;0.93;;;0.82;;
33786;SDS011;29742;51.540;9.358;2023-02-15T18:06:04;1.65;;;1.05;;
33786;SDS011;29742;51.540;9.358;2023-02-15T18:11:23;1.35;;;1.05;;
33786;SDS011;29742;51.540;9.358;2023-02-15T18:16:39;1.92;;;1.27;;
33786;SDS011;29742;51.540;9.358;2023-02-15T18:21:42;1.73;;;1.17;;
33786;SDS011;29742;51.540;9.358;2023-02-15T18:26:43;2.38;;;1.50;;
33786;SDS011;29742;51.540;9.358;2023-02-15T18:31:44;1.85;;;1.27;;
33786;SDS011;29742;51.540;9.358;2023-02-15T18:36:45;2.42;;;1.38;;
33786;SDS011;29742;51.540;9.358;2023-02-15T18:41:45;1.92;;;1.20;;
33786;SDS011;29742;51.540;9.358;2023-02-15T18:46:46;2.25;;;1.50;;
33786;SDS011;29742;51.540;9.358;2023-02-15T18:51:46;2.63;;;1.67;;
33786;SDS011;29742;51.540;9.358;2023-02-15T18:56:51;2.53;;;1.88;;
33786;SDS011;29742;51.540;9.358;2023-02-15T19:01:56;2.30;;;1.27;;
33786;SDS011;29742;51.540;9.358;2023-02-15T19:06:57;1.27;;;1.17;;
33786;SDS011;29742;51.540;9.358;2023-02-15T19:11:57;1.35;;;1.08;;
33786;SDS011;29742;51.540;9.358;2023-02-15T19:16:58;1.70;;;1.15;;
33786;SDS011;29742;51.540;9.358;2023-02-15T19:22:00;2.20;;;1.20;;
33786;SDS011;29742;51.540;9.358;2023-02-15T19:27:00;1.67;;;1.15;;
33786;SDS011;29742;51.540;9.358;2023-02-15T19:32:01;2.45;;;1.25;;
33786;SDS011;29742;51.540;9.358;2023-02-15T19:37:01;2.70;;;1.50;;
33786;SDS011;29742;51.540;9.358;2023-02-15T19:42:02;2.22;;;1.60;;
33786;SDS011;29742;51.540;9.358;2023-02-15T19:47:04;2.15;;;1.52;;
33786;SDS011;29742;51.540;9.358;2023-02-15T19:52:04;2.03;;;1.60;;
33786;SDS011;29742;51.540;9.358;2023-02-15T19:57:09;2.53;;;1.70;;
33786;SDS011;29742;51.540;9.358;2023-02-15T20:02:13;2.00;;;1.48;;
33786;SDS011;29742;51.540;9.358;2023-02-15T20:07:17;1.77;;;1.55;;
33786;SDS011;29742;51.540;9.358;2023-02-15T20:12:26;2.28;;;1.55;;
33786;SDS011;29742;51.540;9.358;2023-02-15T20:17:28;2.50;;;1.75;;
33786;SDS011;29742;51.540;9.358;2023-02-15T20:22:28;2.42;;;1.63;;
33786;SDS011;29742;51.540;9.358;2023-02-15T20:27:29;2.30;;;1.67;;
33786;SDS011;29742;51.540;9.358;2023-02-15T20:32:29;2.67;;;1.95;;
33786;SDS011;29742;51.540;9.358;2023-02-15T20:37:29;1.95;;;1.60;;
33786;SDS011;29742;51.540;9.358;2023-02-15T20:42:30;2.25;;;1.73;;
33786;SDS011;29742;51.540;9.358;2023-02-15T20:47:30;2.33;;;1.90;;
33786;SDS011;29742;51.540;9.358;2023-02-15T20:52:31;2.00;;;1.50;;
33786;SDS011;29742;51.540;9.358;2023-02-15T20:57:31;3.00;;;1.70;;
33786;SDS011;29742;51.540;9.358;2023-02-15T21:02:31;2.63;;;1.92;;
33786;SDS011;29742;51.540;9.358;2023-02-15T21:07:32;2.45;;;2.00;;
33786;SDS011;29742;51.540;9.358;2023-02-15T21:12:32;1.88;;;1.50;;
33786;SDS011;29742;51.540;9.358;2023-02-15T21:17:32;1.90;;;1.50;;
33786;SDS011;29742;51.540;9.358;2023-02-15T21:22:33;2.13;;;1.45;;
33786;SDS011;29742;51.540;9.358;2023-02-15T21:27:33;2.28;;;1.55;;
33786;SDS011;29742;51.540;9.358;2023-02-15T21:32:34;2.42;;;1.70;;
33786;SDS011;29742;51.540;9.358;2023-02-15T21:37:34;2.50;;;1.60;;
33786;SDS011;29742;51.540;9.358;2023-02-15T21:42:35;2.88;;;1.60;;
33786;SDS011;29742;51.540;9.358;2023-02-15T21:47:54;2.25;;;1.52;;
33786;SDS011;29742;51.540;9.358;2023-02-15T21:52:54;2.00;;;1.63;;
33786;SDS011;29742;51.540;9.358;2023-02-15T21:57:55;2.40;;;1.50;;
33786;SDS011;29742;51.540;9.358;2023-02-15T22:02:56;3.35;;;1.88;;
33786;SDS011;29742;51.540;9.358;2023-02-15T22:07:58;1.63;;;1.27;;
33786;SDS011;29742;51.540;9.358;2023-02-15T22:12:59;2.00;;;1.50;;
33786;SDS011;29742;51.540;9.358;2023-02-15T22:18:00;2.38;;;1.92;;
33786;SDS011;29742;51.540;9.358;2023-02-15T22:23:00;2.17;;;1.73;;
33786;SDS011;29742;51.540;9.358;2023-02-15T22:28:00;1.75;;;1.30;;
33786;SDS011;29742;51.540;9.358;2023-02-15T22:33:01;2.28;;;1.52;;
33786;SDS011;29742;51.540;9.358;2023-02-15T22:38:01;2.80;;;2.38;;
33786;SDS011;29742;51.540;9.358;2023-02-15T22:43:03;2.35;;;1.67;;
33786;SDS011;29742;51.540;9.358;2023-02-15T22:48:04;3.05;;;1.90;;
33786;SDS011;29742;51.540;9.358;2023-02-15T22:53:04;2.97;;;2.10;;
33786;SDS011;29742;51.540;9.358;2023-02-15T22:58:05;2.53;;;1.60;;
33786;SDS011;29742;51.540;9.358;2023-02-15T23:03:13;2.65;;;1.80;;
33786;SDS011;29742;51.540;9.358;2023-02-15T23:08:24;3.30;;;2.08;;
33786;SDS011;29742;51.540;9.358;2023-02-15T23:13:27;2.10;;;1.45;;
33786;SDS011;29742;51.540;9.358;2023-02-15T23:18:32;2.13;;;1.63;;
33786;SDS011;29742;51.540;9.358;2023-02-15T23:23:38;2.95;;;1.85;;
33786;SDS011;29742;51.540;9.358;2023-02-15T23:28:40;3.25;;;1.92;;
33786;SDS011;29742;51.540;9.358;2023-02-15T23:33:40;2.92;;;1.92;;
33786;SDS011;29742;51.540;9.358;2023-02-15T23:38:40;2.60;;;2.10;;
33786;SDS011;29742;51.540;9.358;2023-02-15T23:43:42;2.72;;;2.00;;
33786;SDS011;29742;51.540;9.358;2023-02-15T23:48:43;2.20;;;1.67;;
33786;SDS011;29742;51.540;9.358;2023-02-15T23:53:44;2.40;;;1.88;;
33786;SDS011;29742;51.540;9.358;2023-02-15T23:58:44;2.47;;;1.80;;
